createdAt,value
2018-07-17T00:02:08.668Z,20.50
2018-07-17T00:04:37.604Z,20.50
2018-07-17T00:07:06.373Z,20.50
2018-07-17T00:09:35.289Z,20.50
2018-07-17T00:12:04.115Z,20.50
2018-07-17T00:14:32.921Z,20.50
2018-07-17T00:17:01.699Z,20.50
2018-07-17T00:19:30.503Z,20.50
2018-07-17T00:21:59.298Z,20.50
2018-07-17T00:24:28.101Z,20.50
2018-07-17T00:26:56.963Z,20.50
2018-07-17T00:29:25.750Z,20.40
2018-07-17T00:31:54.498Z,20.40
2018-07-17T00:34:23.254Z,20.40
2018-07-17T00:36:52.123Z,20.40
2018-07-17T00:39:20.898Z,20.40
2018-07-17T00:41:49.663Z,20.40
2018-07-17T00:44:18.483Z,20.40
2018-07-17T00:46:47.235Z,20.40
2018-07-17T00:49:16.003Z,20.40
2018-07-17T00:51:44.855Z,20.40
2018-07-17T00:54:13.665Z,20.50
2018-07-17T00:56:42.534Z,20.50
2018-07-17T00:59:11.306Z,20.50
2018-07-17T01:01:45.599Z,20.50
2018-07-17T01:04:19.978Z,20.50
2018-07-17T01:06:54.362Z,20.40
2018-07-17T01:09:28.687Z,20.20
2018-07-17T01:12:02.955Z,20.10
2018-07-17T01:14:36.439Z,20.10
2018-07-17T01:17:05.528Z,20.10
2018-07-17T01:19:34.310Z,20.00
2018-07-17T01:22:03.100Z,20.00
2018-07-17T01:24:31.998Z,19.90
2018-07-17T01:27:00.814Z,19.90
2018-07-17T01:29:29.676Z,20.00
2018-07-17T01:31:58.558Z,20.00
2018-07-17T01:34:27.454Z,20.00
2018-07-17T01:36:56.351Z,20.10
2018-07-17T01:39:25.189Z,20.00
2018-07-17T01:41:53.934Z,20.10
2018-07-17T01:44:22.806Z,20.10
2018-07-17T01:46:51.603Z,20.10
2018-07-17T01:49:20.494Z,20.10
2018-07-17T01:51:49.250Z,20.00
2018-07-17T01:54:18.073Z,20.00
2018-07-17T01:56:46.966Z,19.90
2018-07-17T01:59:15.754Z,20.00
2018-07-17T02:01:44.522Z,20.00
2018-07-17T02:04:13.316Z,19.90
2018-07-17T02:06:42.092Z,19.80
2018-07-17T02:09:11.019Z,19.80
2018-07-17T02:11:39.802Z,19.80
2018-07-17T02:14:08.595Z,19.90
2018-07-17T02:16:37.479Z,19.90
2018-07-17T02:19:06.322Z,19.80
2018-07-17T02:21:35.047Z,19.80
2018-07-17T02:24:03.851Z,19.80
2018-07-17T02:26:32.643Z,19.80
2018-07-17T02:29:01.467Z,19.80
2018-07-17T02:31:30.271Z,19.70
2018-07-17T02:33:59.062Z,19.70
2018-07-17T02:36:27.904Z,19.70
2018-07-17T02:38:56.710Z,19.70
2018-07-17T02:41:25.509Z,19.70
2018-07-17T02:43:54.370Z,19.70
2018-07-17T02:46:23.163Z,19.70
2018-07-17T02:48:51.930Z,19.70
2018-07-17T02:51:20.726Z,19.60
2018-07-17T02:53:49.499Z,19.60
2018-07-17T02:56:18.297Z,19.60
2018-07-17T02:58:47.202Z,19.50
2018-07-17T03:01:15.990Z,19.60
2018-07-17T03:03:44.767Z,19.60
2018-07-17T03:06:13.559Z,19.60
2018-07-17T03:08:42.367Z,19.60
2018-07-17T03:11:11.195Z,19.60
2018-07-17T03:13:39.946Z,19.60
2018-07-17T03:16:08.755Z,19.70
2018-07-17T03:18:37.567Z,19.70
2018-07-17T03:21:06.334Z,19.70
2018-07-17T03:23:35.147Z,19.80
2018-07-17T03:26:03.987Z,19.70
2018-07-17T03:28:32.778Z,19.70
2018-07-17T03:31:01.554Z,19.70
2018-07-17T03:33:30.346Z,19.80
2018-07-17T03:35:59.142Z,19.80
2018-07-17T03:38:27.899Z,19.80
2018-07-17T03:40:56.715Z,19.80
2018-07-17T03:43:25.488Z,19.80
2018-07-17T03:45:54.278Z,19.80
2018-07-17T03:48:23.103Z,19.90
2018-07-17T03:50:51.883Z,20.00
2018-07-17T03:53:20.710Z,20.00
2018-07-17T03:55:49.554Z,20.00
2018-07-17T03:58:18.418Z,20.00
2018-07-17T04:00:47.199Z,20.00
2018-07-17T04:03:15.998Z,20.00
2018-07-17T04:05:44.820Z,20.00
2018-07-17T04:08:14.450Z,20.00
2018-07-17T04:10:43.258Z,20.10
2018-07-17T04:13:12.157Z,20.20
2018-07-17T04:15:41.020Z,20.20
2018-07-17T04:18:10.918Z,20.30
2018-07-17T04:20:40.823Z,20.30
2018-07-17T04:23:10.970Z,20.30
2018-07-17T04:25:39.863Z,20.30
2018-07-17T04:28:08.635Z,20.30
2018-07-17T04:30:37.523Z,20.30
2018-07-17T04:33:06.442Z,20.30
2018-07-17T04:35:35.198Z,20.40
2018-07-17T04:40:32.455Z,20.20
2018-07-17T04:43:01.246Z,20.30
2018-07-17T04:45:30.003Z,20.30
2018-07-17T04:47:58.958Z,20.40
2018-07-17T04:50:27.737Z,20.40
2018-07-17T04:52:56.542Z,20.50
2018-07-17T04:55:25.365Z,20.70
2018-07-17T04:57:54.126Z,20.80
2018-07-17T05:00:22.930Z,20.90
2018-07-17T05:02:51.723Z,21.00
2018-07-17T05:05:20.624Z,21.00
2018-07-17T05:07:49.454Z,21.10
2018-07-17T05:10:18.227Z,21.00
2018-07-17T05:12:47.081Z,21.10
2018-07-17T05:15:15.790Z,21.10
2018-07-17T05:17:44.640Z,21.00
2018-07-17T05:20:13.991Z,21.10
2018-07-17T05:22:42.800Z,21.10
2018-07-17T05:25:11.658Z,21.10
2018-07-17T05:27:40.503Z,21.20
2018-07-17T05:30:09.268Z,21.40
2018-07-17T05:32:38.051Z,21.50
2018-07-17T05:35:06.907Z,21.50
2018-07-17T05:37:35.618Z,21.60
2018-07-17T05:40:05.165Z,21.50
2018-07-17T05:42:34.074Z,21.60
2018-07-17T05:45:02.867Z,21.70
2018-07-17T05:47:38.707Z,21.90
2018-07-17T05:50:07.686Z,22.00
2018-07-17T05:52:36.587Z,21.90
2018-07-17T05:55:05.466Z,22.00
2018-07-17T05:57:34.288Z,22.10
2018-07-17T06:00:03.071Z,22.20
2018-07-17T06:02:31.936Z,22.30
2018-07-17T06:05:00.699Z,22.40
2018-07-17T06:07:29.495Z,22.30
2018-07-17T06:09:58.262Z,22.50
2018-07-17T06:12:27.097Z,22.40
2018-07-17T06:14:55.885Z,22.50
2018-07-17T06:17:24.781Z,22.60
2018-07-17T06:19:53.778Z,22.40
2018-07-17T06:22:22.673Z,22.50
2018-07-17T06:24:51.535Z,22.40
2018-07-17T06:29:48.832Z,22.50
2018-07-17T06:32:17.724Z,22.40
2018-07-17T06:34:46.623Z,22.60
2018-07-17T06:37:15.879Z,22.90
2018-07-17T06:39:44.634Z,23.00
2018-07-17T06:42:13.598Z,23.20
2018-07-17T06:44:42.414Z,23.20
2018-07-17T06:47:11.339Z,23.40
2018-07-17T06:49:40.334Z,23.50
2018-07-17T06:52:09.645Z,23.80
2018-07-17T06:54:38.667Z,23.90
2018-07-17T06:57:07.454Z,24.00
2018-07-17T06:59:36.238Z,24.00
2018-07-17T07:02:05.015Z,24.10
2018-07-17T07:04:33.773Z,24.10
2018-07-17T07:07:02.546Z,24.00
2018-07-17T07:09:31.345Z,23.90
2018-07-17T07:12:00.078Z,23.70
2018-07-17T07:14:28.987Z,23.60
2018-07-17T07:16:57.719Z,23.80
2018-07-17T07:19:26.559Z,23.50
2018-07-17T07:21:55.322Z,23.60
2018-07-17T07:26:52.606Z,23.80
2018-07-17T07:29:21.386Z,24.00
2018-07-17T07:31:50.198Z,24.20
2018-07-17T07:34:19.086Z,24.30
2018-07-17T07:36:47.895Z,24.40
2018-07-17T07:39:16.690Z,24.60
2018-07-17T07:41:45.503Z,24.70
2018-07-17T07:44:14.458Z,24.70
2018-07-17T07:46:43.228Z,24.60
2018-07-17T07:49:12.059Z,24.50
2018-07-17T07:51:40.910Z,24.30
2018-07-17T07:54:09.675Z,24.20
2018-07-17T07:56:38.457Z,24.20
2018-07-17T07:59:07.290Z,24.10
2018-07-17T08:01:36.195Z,24.00
2018-07-17T08:04:05.060Z,24.10
2018-07-17T08:06:33.789Z,24.30
2018-07-17T08:09:02.782Z,24.60
2018-07-17T08:11:31.812Z,24.50
2018-07-17T08:14:00.905Z,24.80
2018-07-17T08:16:30.119Z,24.80
2018-07-17T08:18:59.216Z,25.00
2018-07-17T08:21:28.043Z,25.20
2018-07-17T08:23:56.878Z,24.90
2018-07-17T08:26:25.762Z,24.80
2018-07-17T08:28:54.742Z,25.00
2018-07-17T08:31:23.701Z,24.80
2018-07-17T08:33:52.769Z,24.90
2018-07-17T08:36:21.498Z,25.10
2018-07-17T08:38:50.307Z,25.30
2018-07-17T08:41:19.070Z,25.40
2018-07-17T08:43:47.886Z,25.70
2018-07-17T08:46:16.656Z,25.80
2018-07-17T08:48:45.424Z,25.90
2018-07-17T08:53:42.738Z,26.10
2018-07-17T08:56:11.546Z,26.00
2018-07-17T08:58:40.298Z,25.80
2018-07-17T09:01:09.432Z,25.80
2018-07-17T09:03:38.273Z,25.70
2018-07-17T09:06:07.190Z,25.60
2018-07-17T09:08:36.099Z,25.50
2018-07-17T09:11:04.884Z,25.60
2018-07-17T09:13:33.631Z,25.80
2018-07-17T09:16:02.446Z,25.90
2018-07-17T09:18:31.241Z,26.10
2018-07-17T09:21:00.276Z,26.10
2018-07-17T09:23:29.019Z,26.10
2018-07-17T09:25:57.819Z,26.20
2018-07-17T09:28:26.590Z,26.00
2018-07-17T09:30:58.450Z,26.00
2018-07-17T09:33:27.585Z,26.10
2018-07-17T09:35:56.353Z,26.20
2018-07-17T09:38:25.180Z,26.10
2018-07-17T09:40:54.300Z,26.10
2018-07-17T09:45:51.628Z,26.40
2018-07-17T09:48:20.387Z,26.10
2018-07-17T09:50:49.179Z,26.00
2018-07-17T09:53:18.017Z,26.00
2018-07-17T09:55:46.864Z,26.20
2018-07-17T09:58:15.639Z,26.20
2018-07-17T10:00:49.894Z,26.20
2018-07-17T10:03:18.651Z,26.30
2018-07-17T10:05:47.494Z,26.50
2018-07-17T10:08:16.307Z,26.60
2018-07-17T10:10:45.174Z,26.80
2018-07-17T10:13:13.938Z,27.10
2018-07-17T10:15:42.719Z,27.30
2018-07-17T10:18:11.903Z,27.10
2018-07-17T10:20:40.675Z,27.00
2018-07-17T10:23:09.480Z,27.00
2018-07-17T10:25:38.250Z,27.10
2018-07-17T10:28:07.064Z,27.20
2018-07-17T10:30:35.832Z,27.10
2018-07-17T10:33:04.744Z,27.20
2018-07-17T10:35:33.673Z,27.40
2018-07-17T10:38:02.560Z,27.60
2018-07-17T10:40:31.336Z,27.70
2018-07-17T10:43:00.093Z,27.70
2018-07-17T10:45:28.994Z,27.70
2018-07-17T10:47:57.764Z,27.90
2018-07-17T10:50:26.566Z,27.90
2018-07-17T10:52:55.410Z,28.10
2018-07-17T10:55:24.363Z,28.20
2018-07-17T10:57:53.150Z,28.00
2018-07-17T11:00:22.039Z,28.10
2018-07-17T11:02:51.031Z,28.10
2018-07-17T11:05:20.027Z,28.00
2018-07-17T11:07:48.841Z,28.00
2018-07-17T11:10:17.842Z,28.10
2018-07-17T11:12:46.694Z,28.40
2018-07-17T11:15:15.475Z,28.50
2018-07-17T11:17:44.278Z,28.50
2018-07-17T11:20:13.035Z,28.40
2018-07-17T11:22:41.818Z,28.50
2018-07-17T11:25:10.578Z,28.30
2018-07-17T11:27:39.382Z,28.50
2018-07-17T11:30:08.317Z,28.80
2018-07-17T11:32:37.165Z,29.00
2018-07-17T11:35:06.326Z,29.20
2018-07-17T11:37:35.475Z,29.20
2018-07-17T11:40:04.482Z,29.50
2018-07-17T11:42:33.246Z,29.40
2018-07-17T11:47:30.593Z,28.90
2018-07-17T11:49:59.332Z,28.90
2018-07-17T11:52:28.097Z,29.10
2018-07-17T11:54:56.851Z,29.00
2018-07-17T11:57:25.641Z,29.00
2018-07-17T11:59:54.390Z,29.30
2018-07-17T12:02:23.171Z,29.20
2018-07-17T12:04:52.055Z,29.30
2018-07-17T12:07:20.841Z,29.40
2018-07-17T12:09:49.597Z,29.70
2018-07-17T12:12:18.386Z,29.90
2018-07-17T12:14:47.159Z,29.80
2018-07-17T12:17:15.938Z,30.40
2018-07-17T12:19:44.813Z,31.00
2018-07-17T12:22:13.714Z,32.60
2018-07-17T12:24:42.479Z,33.50
2018-07-17T12:27:11.488Z,34.30
2018-07-17T12:29:40.258Z,34.30
2018-07-17T12:32:09.052Z,34.50
2018-07-17T12:34:37.811Z,35.00
2018-07-17T12:37:06.634Z,35.40
2018-07-17T12:39:35.386Z,34.20
2018-07-17T12:42:04.211Z,35.10
2018-07-17T12:44:32.985Z,37.10
2018-07-17T12:47:01.792Z,38.10
2018-07-17T12:49:30.678Z,38.20
2018-07-17T12:51:59.420Z,38.20
2018-07-17T12:54:28.191Z,36.80
2018-07-17T12:56:57.201Z,35.90
2018-07-17T12:59:25.971Z,36.20
2018-07-17T13:01:54.754Z,37.70
2018-07-17T13:04:23.636Z,38.50
2018-07-17T13:06:52.448Z,38.80
2018-07-17T13:09:21.267Z,39.10
2018-07-17T13:11:50.063Z,37.30
2018-07-17T13:16:47.354Z,37.40
2018-07-17T13:19:16.157Z,37.60
2018-07-17T13:21:45.054Z,36.60
2018-07-17T13:24:13.957Z,35.90
2018-07-17T13:26:42.776Z,35.90
2018-07-17T13:29:11.609Z,36.40
2018-07-17T13:31:40.411Z,36.80
2018-07-17T13:34:09.222Z,36.80
2018-07-17T13:36:38.089Z,38.10
2018-07-17T13:39:09.274Z,38.50
2018-07-17T13:41:38.114Z,37.80
2018-07-17T13:44:06.889Z,37.50
2018-07-17T13:46:35.679Z,36.40
2018-07-17T13:49:04.630Z,36.70
2018-07-17T13:51:33.382Z,36.40
2018-07-17T13:54:02.299Z,35.30
2018-07-17T13:56:31.166Z,34.90
2018-07-17T13:58:59.951Z,34.30
2018-07-17T14:01:28.737Z,33.90
2018-07-17T14:03:57.555Z,35.10
2018-07-17T14:06:26.410Z,35.20
2018-07-17T14:13:52.291Z,33.40
2018-07-17T14:16:21.038Z,32.70
2018-07-17T14:18:49.880Z,32.20
2018-07-17T14:21:18.665Z,31.90
2018-07-17T14:23:47.550Z,31.70
2018-07-17T14:26:16.271Z,32.30
2018-07-17T14:28:45.032Z,32.30
2018-07-17T14:31:13.771Z,32.60
2018-07-17T14:33:42.644Z,32.80
2018-07-17T14:36:11.391Z,34.10
2018-07-17T14:38:40.288Z,34.50
2018-07-17T14:41:09.042Z,35.10
2018-07-17T14:48:37.598Z,35.80
2018-07-17T14:51:10.830Z,35.80
2018-07-17T14:56:08.768Z,35.80
2018-07-17T14:58:37.650Z,35.50
2018-07-17T15:01:06.699Z,36.00
2018-07-17T15:03:35.771Z,35.80
2018-07-17T15:06:04.734Z,36.40
2018-07-17T15:08:33.536Z,35.90
2018-07-17T15:11:02.435Z,36.20
2018-07-17T15:13:31.363Z,36.00
2018-07-17T15:16:00.262Z,35.70
2018-07-17T15:18:29.074Z,35.80
2018-07-17T15:23:26.483Z,35.00
2018-07-17T15:25:55.270Z,34.00
2018-07-17T15:28:24.883Z,33.30
2018-07-17T15:30:53.662Z,33.50
2018-07-17T15:33:22.418Z,33.80
2018-07-17T15:35:51.288Z,33.50
2018-07-17T15:38:20.049Z,33.30
2018-07-17T15:40:48.802Z,32.60
2018-07-17T15:43:17.562Z,32.40
2018-07-17T15:45:46.455Z,32.70
2018-07-17T15:50:47.042Z,32.90
2018-07-17T16:00:41.481Z,32.10
2018-07-17T16:03:10.234Z,31.90
2018-07-17T16:05:39.058Z,32.30
2018-07-17T16:08:07.852Z,32.60
2018-07-17T16:10:36.773Z,32.90
2018-07-17T16:13:05.515Z,33.30
2018-07-17T16:20:31.538Z,33.90
2018-07-17T16:23:00.306Z,34.10
2018-07-17T16:25:29.218Z,34.80
2018-07-17T16:27:58.166Z,34.60
2018-07-17T16:30:27.512Z,34.50
2018-07-17T16:32:56.358Z,35.20
2018-07-17T16:35:25.478Z,35.50
2018-07-17T16:37:54.543Z,35.20
2018-07-17T16:40:23.366Z,35.40
2018-07-17T16:42:52.225Z,34.50
2018-07-17T16:45:21.017Z,33.80
2018-07-17T16:47:49.778Z,33.50
2018-07-17T16:52:47.082Z,33.10
2018-07-17T16:55:16.007Z,32.70
2018-07-17T16:57:44.770Z,32.90
2018-07-17T17:00:13.558Z,32.90
2018-07-17T17:02:42.339Z,31.70
2018-07-17T17:05:11.251Z,31.40
2018-07-17T17:07:40.049Z,30.90
2018-07-17T17:10:08.858Z,30.20
2018-07-17T17:12:37.651Z,29.70
2018-07-17T17:15:06.533Z,29.70
2018-07-17T17:17:35.432Z,29.80
2018-07-17T17:20:04.335Z,29.50
2018-07-17T17:22:33.211Z,29.80
2018-07-17T17:25:01.992Z,30.10
2018-07-17T17:27:30.864Z,30.20
2018-07-17T17:29:59.599Z,30.50
2018-07-17T17:32:28.417Z,30.60
2018-07-17T17:34:57.249Z,30.60
2018-07-17T17:37:26.139Z,30.60
2018-07-17T17:39:54.961Z,31.20
2018-07-17T17:42:23.710Z,31.40
2018-07-17T17:44:52.482Z,31.00
2018-07-17T17:47:21.275Z,31.30
2018-07-17T17:52:18.669Z,31.80
2018-07-17T17:54:47.439Z,30.90
2018-07-17T17:59:44.942Z,30.50
2018-07-17T18:02:13.808Z,30.10
2018-07-17T18:09:40.066Z,29.50
2018-07-17T18:12:08.994Z,29.00
2018-07-17T18:14:37.722Z,28.30
2018-07-17T18:17:06.533Z,28.00
2018-07-17T18:19:35.442Z,27.60
2018-07-17T18:22:04.237Z,27.00
2018-07-17T18:24:33.097Z,26.80
2018-07-17T18:29:30.379Z,26.60
2018-07-17T18:31:59.160Z,26.40
2018-07-17T18:36:56.441Z,26.00
2018-07-17T18:39:25.246Z,26.00
2018-07-17T18:41:54.115Z,25.80
2018-07-17T18:44:22.900Z,25.80
2018-07-17T18:54:17.492Z,25.70
2018-07-17T18:56:46.330Z,25.70
2018-07-17T19:01:43.743Z,25.40
2018-07-17T19:04:12.555Z,25.30
2018-07-17T19:06:41.454Z,25.20
2018-07-17T19:09:10.722Z,25.10
2018-07-17T19:11:39.801Z,25.10
2018-07-17T19:14:08.610Z,24.90
2018-07-17T19:16:37.909Z,24.80
2018-07-17T19:19:06.967Z,24.80
2018-07-17T19:21:35.729Z,24.80
2018-07-17T19:24:05.143Z,24.60
2018-07-17T19:26:34.106Z,24.60
2018-07-17T19:29:02.995Z,24.60
2018-07-17T19:31:31.803Z,24.40
2018-07-17T19:34:00.674Z,24.30
2018-07-17T19:36:29.501Z,24.20
2018-07-17T19:38:58.351Z,24.10
2018-07-17T19:41:27.145Z,24.20
2018-07-17T19:43:56.024Z,24.10
2018-07-17T19:46:25.380Z,24.10
2018-07-17T19:48:55.201Z,24.00
2018-07-17T19:51:24.134Z,23.90
2018-07-17T19:53:53.018Z,23.90
2018-07-17T19:56:21.921Z,23.80
2018-07-17T19:58:51.288Z,23.80
2018-07-17T20:01:21.379Z,23.80
2018-07-17T20:03:50.226Z,23.70
2018-07-17T20:06:19.123Z,23.70
2018-07-17T20:08:48.027Z,23.60
2018-07-17T20:11:16.906Z,23.60
2018-07-17T20:13:45.714Z,23.60
2018-07-17T20:16:14.500Z,23.50
2018-07-17T20:18:43.422Z,23.50
2018-07-17T20:21:12.210Z,23.40
2018-07-17T20:23:41.051Z,23.40
2018-07-17T20:26:09.860Z,23.40
2018-07-17T20:28:38.738Z,23.40
2018-07-17T20:31:07.763Z,23.40
2018-07-17T20:33:36.796Z,23.40
2018-07-17T20:36:05.534Z,23.30
2018-07-17T20:38:34.410Z,23.30
2018-07-17T20:41:03.176Z,23.30
2018-07-17T20:43:31.967Z,23.30
2018-07-17T20:46:00.784Z,23.20
2018-07-17T20:48:29.765Z,23.10
2018-07-17T20:50:58.638Z,23.00
2018-07-17T20:53:27.474Z,23.00
2018-07-17T20:55:56.246Z,23.00
2018-07-17T20:58:25.033Z,22.90
2018-07-17T21:00:53.838Z,22.90
2018-07-17T21:03:22.610Z,22.90
2018-07-17T21:05:51.379Z,22.90
2018-07-17T21:08:20.167Z,22.90
2018-07-17T21:10:48.957Z,22.80
2018-07-17T21:13:17.875Z,22.80
2018-07-17T21:15:46.531Z,22.80
2018-07-17T21:18:15.438Z,22.80
2018-07-17T21:20:44.224Z,22.70
2018-07-17T21:23:13.018Z,22.60
2018-07-17T21:25:41.815Z,22.60
2018-07-17T21:28:10.707Z,22.50
2018-07-17T21:30:39.482Z,22.50
2018-07-17T21:33:08.287Z,22.50
2018-07-17T21:35:37.126Z,22.50
2018-07-17T21:38:05.914Z,22.50
2018-07-17T21:43:03.224Z,22.50
2018-07-17T21:45:32.017Z,22.50
2018-07-17T21:48:01.062Z,22.50
2018-07-17T21:50:29.875Z,22.50
2018-07-17T21:52:58.742Z,22.50
2018-07-17T21:55:27.533Z,22.50
2018-07-17T21:57:56.326Z,22.50
2018-07-17T22:00:25.165Z,22.50
2018-07-17T22:02:53.915Z,22.50
2018-07-17T22:05:22.742Z,22.40
2018-07-17T22:07:51.848Z,22.40
2018-07-17T22:10:20.634Z,22.40
2018-07-17T22:12:49.419Z,22.40
2018-07-17T22:15:18.392Z,22.40
2018-07-17T22:17:47.114Z,22.40
2018-07-17T22:20:15.986Z,22.40
2018-07-17T22:22:44.789Z,22.30
2018-07-17T22:25:13.674Z,22.40
2018-07-17T22:27:42.507Z,22.40
2018-07-17T22:30:11.368Z,22.40
2018-07-17T22:32:40.130Z,22.30
2018-07-17T22:35:08.978Z,22.30
2018-07-17T22:37:37.734Z,22.30
2018-07-17T22:40:06.615Z,22.30
2018-07-17T22:42:35.407Z,22.30
2018-07-17T22:45:04.398Z,22.30
2018-07-17T22:47:33.227Z,22.30
2018-07-17T22:50:02.070Z,22.30
2018-07-17T22:52:30.827Z,22.30
2018-07-17T22:54:59.665Z,22.30
2018-07-17T22:57:28.423Z,22.20
2018-07-17T22:59:57.278Z,22.30
2018-07-17T23:02:26.011Z,22.20
2018-07-17T23:04:54.814Z,22.20
2018-07-17T23:07:23.707Z,22.20
2018-07-17T23:09:52.490Z,22.20
2018-07-17T23:12:21.265Z,22.20
2018-07-17T23:14:50.113Z,22.30
2018-07-17T23:17:18.854Z,22.20
2018-07-17T23:19:47.752Z,22.30
2018-07-17T23:22:22.389Z,22.30
2018-07-17T23:24:51.319Z,22.30
2018-07-17T23:27:20.170Z,22.30
2018-07-17T23:29:48.958Z,22.30
2018-07-17T23:32:17.710Z,22.30
2018-07-17T23:34:46.579Z,22.30
2018-07-17T23:37:15.318Z,22.40
2018-07-17T23:39:44.423Z,22.30
2018-07-17T23:42:13.208Z,22.30
2018-07-17T23:44:42.119Z,22.30
2018-07-17T23:47:10.858Z,22.30
2018-07-17T23:49:39.650Z,22.20
2018-07-17T23:52:08.629Z,22.20
2018-07-17T23:54:37.454Z,22.30
2018-07-17T23:57:06.367Z,22.40
2018-07-17T23:59:35.242Z,22.40
